createdAt,value
2023-04-17T00:00:08.616Z,29.17
2023-04-17T00:02:40.259Z,29.13
2023-04-17T00:05:10.523Z,29.67
2023-04-17T00:07:41.648Z,29.13
2023-04-17T00:10:12.234Z,28.47
2023-04-17T00:12:40.640Z,28.17
2023-04-17T00:15:11.810Z,26.70
2023-04-17T00:17:40.586Z,26.10
2023-04-17T00:20:10.900Z,27.90
2023-04-17T00:22:39.660Z,28.07
2023-04-17T00:25:12.872Z,26.80
2023-04-17T00:27:42.054Z,28.40
2023-04-17T00:30:15.315Z,26.87
2023-04-17T00:32:43.804Z,28.73
2023-04-17T00:35:12.436Z,29.03
2023-04-17T00:37:40.746Z,29.80
2023-04-17T00:40:10.739Z,29.57
2023-04-17T00:42:39.115Z,29.33
2023-04-17T00:45:10.979Z,30.63
2023-04-17T00:47:41.201Z,29.93
2023-04-17T00:50:11.508Z,30.83
2023-04-17T00:52:39.841Z,31.00
2023-04-17T00:55:09.720Z,30.40
2023-04-17T00:57:38.580Z,32.77
2023-04-17T01:00:10.546Z,30.80
2023-04-17T01:02:41.093Z,32.47
2023-04-17T01:05:10.479Z,31.20
2023-04-17T01:07:40.283Z,32.47
2023-04-17T01:10:10.007Z,31.50
2023-04-17T01:12:38.448Z,30.73
2023-04-17T01:15:08.073Z,34.10
2023-04-17T01:17:36.547Z,33.53
2023-04-17T01:20:10.779Z,30.73
2023-04-17T01:22:39.321Z,32.60
2023-04-17T01:25:10.172Z,32.97
2023-04-17T01:27:38.590Z,33.23
2023-04-17T01:30:09.138Z,33.53
2023-04-17T01:32:37.866Z,31.50
2023-04-17T01:35:07.147Z,32.50
2023-04-17T01:37:41.794Z,31.83
2023-04-17T01:40:12.822Z,31.47
2023-04-17T01:42:41.349Z,32.10
2023-04-17T01:45:12.252Z,31.73
2023-04-17T01:47:40.733Z,33.10
2023-04-17T01:50:10.427Z,32.90
2023-04-17T01:52:40.163Z,33.20
2023-04-17T01:55:09.745Z,33.47
2023-04-17T01:57:39.578Z,33.70
2023-04-17T02:00:10.967Z,34.77
2023-04-17T02:02:39.666Z,33.40
2023-04-17T02:05:08.974Z,35.97
2023-04-17T02:07:37.523Z,35.43
2023-04-17T02:10:06.784Z,32.73
2023-04-17T02:12:35.123Z,34.70
2023-04-17T02:15:05.377Z,35.53
2023-04-17T02:17:33.825Z,33.23
2023-04-17T02:20:02.178Z,34.47
2023-04-17T02:22:30.534Z,33.40
2023-04-17T02:24:58.903Z,35.77
2023-04-17T02:27:27.590Z,35.37
2023-04-17T02:29:56.059Z,35.33
2023-04-17T02:32:26.730Z,35.97
2023-04-17T02:34:56.222Z,37.00
2023-04-17T02:37:24.754Z,36.07
2023-04-17T02:39:53.583Z,37.37
2023-04-17T02:42:22.722Z,36.33
2023-04-17T02:44:51.081Z,38.07
2023-04-17T02:47:19.756Z,38.40
2023-04-17T02:49:49.963Z,39.47
2023-04-17T02:52:18.488Z,40.17
2023-04-17T02:54:47.097Z,39.13
2023-04-17T02:57:15.845Z,39.33
2023-04-17T02:59:44.259Z,40.60
2023-04-17T03:02:14.606Z,38.97
2023-04-17T03:04:45.067Z,39.63
2023-04-17T03:07:14.892Z,38.27
2023-04-17T03:09:45.625Z,41.77
2023-04-17T03:12:14.639Z,38.43
2023-04-17T03:14:43.696Z,39.27
2023-04-17T03:17:14.166Z,39.17
2023-04-17T03:19:42.826Z,38.50
2023-04-17T03:22:13.269Z,38.53
2023-04-17T03:24:43.367Z,38.50
2023-04-17T03:27:13.806Z,36.60
2023-04-17T03:29:42.270Z,37.97
2023-04-17T03:32:10.946Z,37.67
2023-04-17T03:34:39.384Z,37.47
2023-04-17T03:37:07.818Z,36.17
2023-04-17T03:39:36.295Z,35.27
2023-04-17T03:42:06.315Z,35.93
2023-04-17T03:44:35.059Z,33.23
2023-04-17T03:47:03.517Z,35.37
2023-04-17T03:49:31.835Z,33.47
2023-04-17T03:52:00.287Z,33.03
2023-04-17T03:54:29.927Z,32.13
2023-04-17T03:56:58.459Z,35.67
2023-04-17T03:59:28.175Z,33.83
2023-04-17T04:01:56.797Z,34.27
2023-04-17T04:04:26.411Z,32.17
2023-04-17T04:06:57.653Z,34.57
2023-04-17T04:09:26.326Z,31.23
2023-04-17T04:11:55.156Z,32.33
2023-04-17T04:14:23.496Z,31.60
2023-04-17T04:16:53.355Z,32.83
2023-04-17T04:19:22.131Z,32.10
2023-04-17T04:21:50.649Z,31.83
2023-04-17T04:24:20.881Z,30.60
2023-04-17T04:26:52.396Z,33.53
2023-04-17T04:29:25.881Z,32.47
2023-04-17T04:31:55.882Z,32.40
2023-04-17T04:34:26.026Z,32.30
2023-04-17T04:36:54.423Z,35.83
2023-04-17T04:39:23.122Z,33.03
2023-04-17T04:41:53.249Z,32.57
2023-04-17T04:44:22.492Z,34.43
2023-04-17T04:46:53.085Z,34.40
2023-04-17T04:49:23.108Z,31.57
2023-04-17T04:51:52.076Z,32.60
2023-04-17T04:54:21.055Z,33.33
2023-04-17T04:56:50.860Z,37.43
2023-04-17T04:59:19.668Z,33.23
2023-04-17T05:01:48.095Z,31.20
2023-04-17T05:04:16.608Z,32.63
2023-04-17T05:06:46.425Z,34.83
2023-04-17T05:09:16.769Z,32.10
2023-04-17T05:11:45.669Z,34.43
2023-04-17T05:14:14.317Z,32.53
2023-04-17T05:16:43.378Z,33.87
2023-04-17T05:19:12.004Z,33.73
2023-04-17T05:21:40.904Z,35.13
2023-04-17T05:24:11.445Z,34.57
2023-04-17T05:26:39.839Z,36.50
2023-04-17T05:29:09.196Z,37.47
2023-04-17T05:31:38.144Z,36.07
2023-04-17T05:34:06.704Z,37.33
2023-04-17T05:36:35.172Z,34.97
2023-04-17T05:39:04.179Z,36.40
2023-04-17T05:41:33.932Z,35.50
2023-04-17T05:44:02.867Z,36.27
2023-04-17T05:46:31.252Z,35.93
2023-04-17T05:48:59.710Z,34.67
2023-04-17T05:51:28.826Z,36.40
2023-04-17T05:53:57.266Z,34.33
2023-04-17T05:56:26.081Z,35.87
2023-04-17T05:58:56.378Z,37.30
2023-04-17T06:01:26.264Z,37.50
2023-04-17T06:03:56.065Z,37.47
2023-04-17T06:06:27.393Z,35.60
2023-04-17T06:08:56.255Z,34.93
2023-04-17T06:11:26.248Z,34.80
2023-04-17T06:13:56.135Z,33.20
2023-04-17T06:16:24.903Z,33.00
2023-04-17T06:18:53.322Z,32.87
2023-04-17T06:21:22.294Z,32.67
2023-04-17T06:23:51.040Z,31.87
2023-04-17T06:26:19.925Z,32.10
2023-04-17T06:28:48.277Z,29.83
2023-04-17T06:31:18.035Z,30.17
2023-04-17T06:33:47.965Z,29.60
2023-04-17T06:36:16.356Z,28.83
2023-04-17T06:38:45.158Z,29.97
2023-04-17T06:41:14.416Z,28.47
2023-04-17T06:43:42.859Z,29.23
2023-04-17T06:46:11.274Z,29.17
2023-04-17T06:48:41.098Z,28.67
2023-04-17T06:51:09.514Z,31.47
2023-04-17T06:53:38.046Z,30.30
2023-04-17T06:56:07.545Z,30.97
2023-04-17T06:58:42.390Z,28.37
2023-04-17T07:01:11.224Z,28.60
2023-04-17T07:03:42.540Z,29.60
2023-04-17T07:06:11.650Z,29.20
2023-04-17T07:08:40.346Z,28.60
2023-04-17T07:11:08.679Z,27.83
2023-04-17T07:13:37.152Z,29.03
2023-04-17T07:16:06.363Z,28.23
2023-04-17T07:18:34.943Z,28.03
2023-04-17T07:21:05.028Z,28.70
2023-04-17T07:23:33.538Z,26.23
2023-04-17T07:26:02.056Z,26.03
2023-04-17T07:28:30.440Z,26.83
2023-04-17T07:30:59.190Z,25.27
2023-04-17T07:33:28.165Z,25.43
2023-04-17T07:35:57.114Z,25.33
2023-04-17T07:38:27.429Z,23.60
2023-04-17T07:40:56.227Z,24.20
2023-04-17T07:43:24.933Z,24.10
2023-04-17T07:45:53.410Z,22.67
2023-04-17T07:48:24.628Z,22.33
2023-04-17T07:50:53.171Z,23.63
2023-04-17T07:53:25.850Z,21.60
2023-04-17T07:55:55.971Z,22.53
2023-04-17T07:58:27.146Z,22.43
2023-04-17T08:00:56.374Z,22.80
2023-04-17T08:03:26.265Z,23.23
2023-04-17T08:05:55.054Z,22.30
2023-04-17T08:08:24.150Z,21.97
2023-04-17T08:10:54.594Z,21.73
2023-04-17T08:13:22.993Z,23.63
2023-04-17T08:15:52.320Z,21.70
2023-04-17T08:18:20.977Z,21.03
2023-04-17T08:20:49.415Z,21.53
2023-04-17T08:23:17.868Z,21.77
2023-04-17T08:25:46.925Z,20.73
2023-04-17T08:28:16.922Z,21.60
2023-04-17T08:30:45.369Z,20.97
2023-04-17T08:33:16.842Z,19.73
2023-04-17T08:35:45.494Z,20.30
2023-04-17T08:38:14.892Z,19.67
2023-04-17T08:40:46.726Z,19.27
2023-04-17T08:43:19.915Z,19.23
2023-04-17T08:45:54.068Z,19.90
2023-04-17T08:48:23.926Z,19.43
2023-04-17T08:50:54.805Z,19.23
2023-04-17T08:53:23.599Z,18.00
2023-04-17T08:55:52.507Z,17.47
2023-04-17T08:58:28.438Z,17.80
2023-04-17T09:01:08.933Z,17.50
2023-04-17T09:03:43.369Z,17.33
2023-04-17T09:06:12.826Z,16.93
2023-04-17T09:08:58.268Z,17.40
2023-04-17T09:11:27.725Z,17.77
2023-04-17T09:13:57.899Z,16.17
2023-04-17T09:16:28.084Z,16.73
2023-04-17T09:19:07.927Z,16.30
2023-04-17T09:21:36.360Z,16.43
2023-04-17T09:24:07.907Z,16.50
2023-04-17T09:26:37.110Z,16.37
2023-04-17T09:29:12.411Z,17.20
2023-04-17T09:31:43.418Z,16.87
2023-04-17T09:34:15.498Z,17.23
2023-04-17T09:36:44.922Z,17.70
2023-04-17T09:39:20.937Z,17.53
2023-04-17T09:41:49.681Z,17.40
2023-04-17T09:44:30.095Z,16.47
2023-04-17T09:47:00.434Z,17.37
2023-04-17T09:49:36.510Z,16.07
2023-04-17T09:52:05.560Z,17.93
2023-04-17T09:54:37.868Z,16.73
2023-04-17T09:57:09.347Z,16.57
2023-04-17T09:59:41.235Z,17.30
2023-04-17T10:02:11.713Z,17.70
2023-04-17T10:04:42.716Z,17.33
2023-04-17T10:07:12.765Z,18.03
2023-04-17T10:09:43.062Z,17.27
2023-04-17T10:12:16.954Z,17.53
2023-04-17T10:14:50.054Z,17.07
2023-04-17T10:17:26.207Z,17.17
2023-04-17T10:19:54.958Z,16.60
2023-04-17T10:22:41.358Z,16.67
2023-04-17T10:25:22.484Z,16.90
2023-04-17T10:28:01.271Z,17.20
2023-04-17T10:30:55.182Z,17.10
2023-04-17T10:33:27.367Z,15.90
2023-04-17T10:35:58.202Z,16.67
2023-04-17T10:38:35.722Z,16.27
2023-04-17T10:41:11.376Z,16.23
2023-04-17T10:43:45.724Z,16.00
2023-04-17T10:46:16.450Z,15.43
2023-04-17T10:48:51.134Z,16.00
2023-04-17T10:51:42.673Z,16.53
2023-04-17T10:54:15.871Z,15.73
2023-04-17T10:56:48.563Z,16.70
2023-04-17T10:59:18.479Z,16.57
2023-04-17T11:02:07.747Z,16.63
2023-04-17T11:04:36.611Z,16.43
2023-04-17T11:07:04.989Z,16.07
2023-04-17T11:09:33.560Z,16.47
2023-04-17T11:12:03.032Z,17.23
2023-04-17T11:14:32.434Z,16.10
2023-04-17T11:17:03.268Z,15.70
2023-04-17T11:19:34.811Z,16.57
2023-04-17T11:22:04.656Z,16.63
2023-04-17T11:24:33.634Z,17.40
2023-04-17T11:27:03.873Z,16.77
2023-04-17T11:29:32.542Z,17.07
2023-04-17T11:32:02.367Z,17.73
2023-04-17T11:34:31.586Z,18.03
2023-04-17T11:37:02.364Z,16.23
2023-04-17T11:39:33.146Z,16.57
2023-04-17T11:42:03.410Z,17.73
2023-04-17T11:44:31.824Z,16.93
2023-04-17T11:47:04.092Z,17.83
2023-04-17T11:49:34.390Z,16.97
2023-04-17T11:52:04.421Z,16.90
2023-04-17T11:54:38.124Z,17.17
2023-04-17T11:57:08.393Z,17.30
2023-04-17T11:59:39.577Z,17.57
2023-04-17T12:02:10.811Z,16.83
2023-04-17T12:04:41.004Z,15.82
2023-04-17T12:07:23.237Z,17.75
2023-04-17T12:09:57.649Z,16.70
2023-04-17T12:12:26.365Z,17.38
2023-04-17T12:14:55.084Z,17.52
2023-04-17T12:17:25.198Z,16.20
2023-04-17T12:19:53.977Z,17.38
2023-04-17T12:22:23.363Z,17.63
2023-04-17T12:24:51.987Z,15.98
2023-04-17T12:27:20.795Z,16.48
2023-04-17T12:29:49.127Z,15.35
2023-04-17T12:32:17.475Z,17.20
2023-04-17T12:34:47.220Z,16.80
2023-04-17T12:37:16.160Z,15.63
2023-04-17T12:39:44.579Z,15.85
2023-04-17T12:42:13.500Z,16.00
2023-04-17T12:44:42.274Z,15.60
2023-04-17T12:47:10.652Z,15.10
2023-04-17T12:49:38.997Z,13.88
2023-04-17T12:52:08.723Z,14.60
2023-04-17T12:54:37.300Z,14.07
2023-04-17T12:57:05.945Z,14.00
2023-04-17T12:59:34.528Z,13.93
2023-04-17T13:02:03.110Z,12.68
2023-04-17T13:04:31.932Z,13.05
2023-04-17T13:07:00.455Z,12.75
2023-04-17T13:09:30.294Z,11.77
2023-04-17T13:11:58.788Z,12.27
2023-04-17T13:14:27.801Z,12.43
2023-04-17T13:16:56.498Z,13.13
2023-04-17T13:19:25.202Z,13.63
2023-04-17T13:21:53.747Z,12.75
2023-04-17T13:24:22.671Z,12.80
2023-04-17T13:26:52.813Z,12.15
2023-04-17T13:29:22.035Z,12.98
2023-04-17T13:31:50.943Z,11.93
2023-04-17T13:34:19.842Z,11.27
2023-04-17T13:36:48.567Z,11.57
2023-04-17T13:39:17.034Z,11.23
2023-04-17T13:41:45.707Z,11.80
2023-04-17T13:44:16.417Z,11.77
2023-04-17T13:46:45.628Z,10.88
2023-04-17T13:49:15.142Z,11.65
2023-04-17T13:51:43.854Z,12.10
2023-04-17T13:54:12.190Z,11.82
2023-04-17T13:56:40.738Z,11.57
2023-04-17T13:59:09.486Z,11.82
2023-04-17T14:01:39.513Z,11.15
2023-04-17T14:04:08.772Z,9.82
2023-04-17T14:06:37.301Z,10.07
2023-04-17T14:09:07.638Z,10.30
2023-04-17T14:11:36.145Z,10.57
2023-04-17T14:14:04.660Z,10.68
2023-04-17T14:16:33.250Z,10.77
2023-04-17T14:19:12.491Z,11.38
2023-04-17T14:21:42.848Z,11.02
2023-04-17T14:24:11.328Z,11.93
2023-04-17T14:26:40.214Z,11.55
2023-04-17T14:29:10.876Z,10.45
2023-04-17T14:31:39.641Z,11.30
2023-04-17T14:34:09.468Z,10.52
2023-04-17T14:36:37.911Z,11.35
2023-04-17T14:39:07.058Z,9.82
2023-04-17T14:41:35.642Z,8.65
2023-04-17T14:44:04.496Z,8.18
2023-04-17T14:46:33.092Z,9.15
2023-04-17T14:49:01.694Z,9.00
2023-04-17T14:51:31.596Z,8.82
2023-04-17T14:54:00.002Z,8.77
2023-04-17T14:56:28.649Z,7.25
2023-04-17T14:58:57.377Z,6.95
2023-04-17T15:01:26.290Z,6.93
2023-04-17T15:03:55.351Z,7.50
2023-04-17T15:06:23.813Z,8.10
2023-04-17T15:08:53.500Z,8.77
2023-04-17T15:11:23.398Z,7.65
2023-04-17T15:13:52.655Z,9.93
2023-04-17T15:16:21.543Z,9.75
2023-04-17T15:18:51.199Z,8.30
2023-04-17T15:21:20.516Z,9.93
2023-04-17T15:23:49.006Z,9.90
2023-04-17T15:26:18.705Z,10.82
2023-04-17T15:28:47.144Z,9.93
2023-04-17T15:31:15.768Z,11.15
2023-04-17T15:33:45.702Z,8.93
2023-04-17T15:36:14.216Z,9.30
2023-04-17T15:38:45.768Z,9.27
2023-04-17T15:41:14.785Z,10.13
2023-04-17T15:43:44.676Z,10.13
2023-04-17T15:46:13.170Z,9.27
2023-04-17T15:48:41.675Z,9.20
2023-04-17T15:51:10.720Z,8.55
2023-04-17T15:53:39.257Z,8.80
2023-04-17T15:56:08.453Z,7.47
2023-04-17T15:58:36.788Z,8.48
2023-04-17T16:01:06.840Z,7.90
2023-04-17T16:03:35.703Z,7.88
2023-04-17T16:06:04.404Z,8.38
2023-04-17T16:08:32.787Z,7.95
2023-04-17T16:11:01.124Z,8.18
2023-04-17T16:13:29.586Z,9.20
2023-04-17T16:15:58.458Z,9.77
2023-04-17T16:18:28.356Z,8.95
2023-04-17T16:20:57.050Z,8.57
2023-04-17T16:23:25.900Z,8.00
2023-04-17T16:25:56.172Z,8.20
2023-04-17T16:28:26.163Z,8.30
2023-04-17T16:30:54.556Z,8.85
2023-04-17T16:33:23.519Z,7.70
2023-04-17T16:35:53.818Z,9.35
2023-04-17T16:38:22.789Z,9.38
2023-04-17T16:40:57.465Z,9.35
2023-04-17T16:43:26.250Z,9.95
2023-04-17T16:45:54.828Z,10.10
2023-04-17T16:48:23.952Z,8.98
2023-04-17T16:50:54.116Z,10.55
2023-04-17T16:53:22.801Z,9.40
2023-04-17T16:55:51.661Z,10.02
2023-04-17T16:58:20.299Z,9.93
2023-04-17T17:00:48.646Z,8.88
2023-04-17T17:03:17.104Z,8.80
2023-04-17T17:05:45.566Z,8.95
2023-04-17T17:08:15.664Z,8.93
2023-04-17T17:10:44.068Z,8.32
2023-04-17T17:13:12.776Z,7.28
2023-04-17T17:15:41.852Z,7.75
2023-04-17T17:18:10.337Z,8.27
2023-04-17T17:20:38.754Z,8.73
2023-04-17T17:23:07.360Z,9.18
2023-04-17T17:25:37.106Z,9.32
2023-04-17T17:28:05.629Z,9.88
2023-04-17T17:30:34.332Z,10.45
2023-04-17T17:33:02.823Z,9.98
2023-04-17T17:35:31.211Z,9.50
2023-04-17T17:37:59.602Z,9.45
2023-04-17T17:40:28.291Z,9.88
2023-04-17T17:42:58.199Z,9.48
2023-04-17T17:45:26.685Z,9.10
2023-04-17T17:47:55.260Z,10.30
2023-04-17T17:50:23.744Z,9.68
2023-04-17T17:52:52.489Z,11.07
2023-04-17T17:55:21.399Z,10.98
2023-04-17T17:57:51.705Z,11.57
2023-04-17T18:00:22.750Z,11.10
2023-04-17T18:02:51.556Z,11.90
2023-04-17T18:05:20.331Z,12.43
2023-04-17T18:07:48.685Z,12.75
2023-04-17T18:10:17.460Z,13.00
2023-04-17T18:12:46.041Z,12.75
2023-04-17T18:15:14.583Z,13.98
2023-04-17T18:17:45.091Z,13.80
2023-04-17T18:20:13.788Z,13.17
2023-04-17T18:22:42.542Z,13.83
2023-04-17T18:25:12.201Z,14.17
2023-04-17T18:27:40.817Z,13.93
2023-04-17T18:30:10.983Z,14.37
2023-04-17T18:32:39.397Z,15.10
2023-04-17T18:35:10.455Z,15.03
2023-04-17T18:37:39.825Z,14.20
2023-04-17T18:40:10.573Z,16.10
2023-04-17T18:42:39.004Z,16.50
2023-04-17T18:45:09.475Z,15.47
2023-04-17T18:47:39.583Z,15.83
2023-04-17T18:50:11.503Z,15.00
2023-04-17T18:52:44.058Z,14.40
2023-04-17T18:55:17.556Z,13.40
2023-04-17T18:57:45.971Z,14.00
2023-04-17T19:00:15.049Z,13.47
2023-04-17T19:02:43.531Z,12.30
2023-04-17T19:05:14.032Z,11.57
2023-04-17T19:07:42.410Z,11.57
2023-04-17T19:10:12.188Z,11.90
2023-04-17T19:12:42.472Z,12.00
2023-04-17T19:15:12.896Z,11.40
2023-04-17T19:17:41.856Z,11.13
2023-04-17T19:20:12.903Z,10.83
2023-04-17T19:22:41.221Z,9.93
2023-04-17T19:25:11.118Z,11.00
2023-04-17T19:27:39.536Z,10.40
2023-04-17T19:30:11.074Z,10.07
2023-04-17T19:32:39.526Z,10.40
2023-04-17T19:35:09.727Z,10.90
2023-04-17T19:37:39.698Z,10.37
2023-04-17T19:40:21.456Z,11.00
2023-04-17T19:42:52.822Z,10.37
2023-04-17T19:45:21.698Z,10.80
2023-04-17T19:47:55.046Z,10.57
2023-04-17T19:50:25.346Z,11.60
2023-04-17T19:52:56.639Z,10.97
2023-04-17T19:55:25.597Z,11.47
2023-04-17T19:57:56.476Z,11.63
2023-04-17T20:00:25.684Z,11.33
2023-04-17T20:02:54.249Z,11.57
2023-04-17T20:05:23.321Z,12.10
2023-04-17T20:07:51.681Z,11.60
2023-04-17T20:10:22.374Z,12.43
2023-04-17T20:12:50.789Z,11.07
2023-04-17T20:15:21.994Z,11.30
2023-04-17T20:17:52.020Z,11.83
2023-04-17T20:20:21.310Z,11.93
2023-04-17T20:22:50.338Z,11.67
2023-04-17T20:25:20.733Z,12.43
2023-04-17T20:27:49.412Z,11.93
2023-04-17T20:30:17.812Z,12.03
2023-04-17T20:32:48.102Z,11.67
2023-04-17T20:35:17.614Z,11.97
2023-04-17T20:37:46.374Z,11.97
2023-04-17T20:40:15.042Z,11.23
2023-04-17T20:42:45.681Z,11.80
2023-04-17T20:45:14.062Z,12.00
2023-04-17T20:47:55.917Z,12.23
2023-04-17T20:50:25.973Z,11.70
2023-04-17T20:52:54.482Z,12.27
2023-04-17T20:55:24.439Z,12.33
2023-04-17T20:57:54.294Z,12.43
2023-04-17T21:00:23.209Z,11.63
2023-04-17T21:02:52.147Z,11.30
2023-04-17T21:05:23.839Z,11.87
2023-04-17T21:07:53.027Z,11.60
2023-04-17T21:10:21.995Z,12.27
2023-04-17T21:12:51.079Z,11.87
2023-04-17T21:15:21.647Z,12.20
2023-04-17T21:17:50.257Z,11.50
2023-04-17T21:20:18.899Z,12.17
2023-04-17T21:22:47.369Z,11.83
2023-04-17T21:25:15.945Z,11.97
2023-04-17T21:27:44.721Z,11.97
2023-04-17T21:30:13.652Z,12.00
2023-04-17T21:32:43.603Z,12.00
2023-04-17T21:35:12.311Z,12.77
2023-04-17T21:37:40.744Z,11.70
2023-04-17T21:40:10.962Z,11.53
2023-04-17T21:42:39.995Z,11.30
2023-04-17T21:45:10.027Z,11.07
2023-04-17T21:47:38.406Z,11.00
2023-04-17T21:50:10.497Z,11.27
2023-04-17T21:52:39.236Z,11.33
2023-04-17T21:55:09.395Z,11.50
2023-04-17T21:57:37.915Z,10.67
2023-04-17T22:00:14.124Z,11.70
2023-04-17T22:02:42.703Z,11.80
2023-04-17T22:05:12.665Z,11.90
2023-04-17T22:07:51.742Z,12.23
2023-04-17T22:10:24.565Z,12.40
2023-04-17T22:12:53.124Z,11.50
2023-04-17T22:15:21.975Z,11.57
2023-04-17T22:17:50.843Z,11.53
2023-04-17T22:20:57.954Z,12.73
2023-04-17T22:24:21.523Z,12.83
2023-04-17T22:27:46.150Z,12.33
2023-04-17T22:30:32.932Z,12.83
2023-04-17T22:33:37.321Z,12.30
2023-04-17T22:36:43.908Z,12.40
2023-04-17T22:39:48.502Z,13.53
2023-04-17T22:42:16.835Z,12.77
2023-04-17T22:45:39.753Z,13.17
2023-04-17T22:48:27.877Z,13.70
2023-04-17T22:51:34.654Z,14.23
2023-04-17T22:54:57.178Z,13.87
2023-04-17T22:58:03.635Z,13.30
2023-04-17T23:01:09.322Z,12.60
2023-04-17T23:03:56.578Z,13.43
2023-04-17T23:07:19.749Z,13.90
2023-04-17T23:09:50.300Z,13.83
2023-04-17T23:12:18.661Z,13.20
2023-04-17T23:14:48.462Z,14.27
2023-04-17T23:17:16.894Z,13.70
2023-04-17T23:19:45.304Z,13.93
2023-04-17T23:22:14.710Z,14.30
2023-04-17T23:24:43.195Z,13.53
2023-04-17T23:27:13.385Z,13.37
2023-04-17T23:29:41.828Z,13.50
2023-04-17T23:32:10.711Z,13.20
2023-04-17T23:34:39.093Z,12.63
2023-04-17T23:37:07.959Z,12.23
2023-04-17T23:39:36.649Z,12.67
2023-04-17T23:42:08.070Z,11.73
2023-04-17T23:44:37.982Z,11.53
2023-04-17T23:47:06.777Z,11.83
2023-04-17T23:49:36.366Z,11.90
2023-04-17T23:52:04.851Z,11.97
2023-04-17T23:54:33.259Z,11.50
2023-04-17T23:57:02.165Z,11.90
2023-04-17T23:59:30.517Z,11.93
